Ionia, Iowa
Current Conditions -  °F | °C
As of 8:15 PM on Saturday 25 Oct 2014 (Local Time) from KCCY Reporting Station
Clear Clear  
Wind Chill: 50°   Ceiling: Unl
Heat Index: 50°   Visibility: 10mi
Dew Point: 32°   Wind: 6mph
Humidity: 50%   Direction: 330°NNW
Pressure: 30.06"   Gusts: NA
Location:  43.03°N, 92.46°W
Report Text: KCCY 260115Z AUTO 33005KT 10SM CLR 10/M00 A3006 RMK AO2
Loading
Personal Weather Stations






























Interactive Weather Map
Tropical Storm Tracking
New forecast layout! Learn more

10-Day Weather Forecast

Advertisements
Track Severe Weather on mobile